createdAt,value
2024-03-16T00:01:36.914Z,11.36
2024-03-16T00:06:17.876Z,11.38
2024-03-16T00:10:55.932Z,11.39
2024-03-16T00:15:34.880Z,11.38
2024-03-16T00:20:14.887Z,11.39
2024-03-16T00:24:55.881Z,11.41
2024-03-16T00:29:33.863Z,11.41
2024-03-16T00:34:12.928Z,11.41
2024-03-16T00:38:56.848Z,11.38
2024-03-16T00:43:37.889Z,11.29
2024-03-16T00:48:15.898Z,11.15
2024-03-16T00:52:53.838Z,11.14
2024-03-16T00:57:31.980Z,11.14
2024-03-16T01:02:13.861Z,11.12
2024-03-16T01:06:51.869Z,11.07
2024-03-16T01:11:29.911Z,11.02
2024-03-16T01:16:08.937Z,11.02
2024-03-16T01:20:49.874Z,11.05
2024-03-16T01:25:27.845Z,11.05
2024-03-16T01:30:05.852Z,11.09
2024-03-16T01:34:43.866Z,11.13
2024-03-16T01:39:24.870Z,11.14
2024-03-16T01:44:02.869Z,11.11
2024-03-16T01:48:40.869Z,11.07
2024-03-16T01:53:19.878Z,11.08
2024-03-16T01:58:00.865Z,11.10
2024-03-16T02:02:49.856Z,11.12
2024-03-16T02:07:27.868Z,11.11
2024-03-16T02:12:05.874Z,11.05
2024-03-16T02:16:47.840Z,11.06
2024-03-16T02:21:29.866Z,10.97
2024-03-16T02:26:07.887Z,10.97
2024-03-16T02:30:39.883Z,10.94
2024-03-16T02:35:17.856Z,10.91
2024-03-16T02:39:59.899Z,10.83
2024-03-16T02:44:37.900Z,10.76
2024-03-16T02:49:15.876Z,10.71
2024-03-16T02:53:53.831Z,10.78
2024-03-16T02:58:34.848Z,10.82
2024-03-16T03:03:14.853Z,10.77
2024-03-16T03:07:52.829Z,10.75
2024-03-16T03:12:31.849Z,10.77
2024-03-16T03:17:12.846Z,10.76
2024-03-16T03:21:50.847Z,10.72
2024-03-16T03:26:31.635Z,10.71
2024-03-16T03:31:10.912Z,10.71
2024-03-16T03:35:51.865Z,10.74
2024-03-16T03:40:29.848Z,10.72
2024-03-16T03:45:18.863Z,10.68
2024-03-16T03:50:00.860Z,10.70
2024-03-16T03:54:41.822Z,10.72
2024-03-16T03:59:19.852Z,10.66
2024-03-16T04:03:57.878Z,10.63
2024-03-16T04:08:35.829Z,10.53
2024-03-16T04:13:18.835Z,10.46
2024-03-16T04:17:56.855Z,10.49
2024-03-16T04:22:34.873Z,10.41
2024-03-16T04:27:12.835Z,10.11
2024-03-16T04:31:53.844Z,9.96
2024-03-16T04:36:31.855Z,9.90
2024-03-16T04:41:10.849Z,9.78
2024-03-16T04:45:48.945Z,9.52
2024-03-16T04:50:29.878Z,9.35
2024-03-16T04:55:07.997Z,9.29
2024-03-16T04:59:46.844Z,9.10
2024-03-16T05:04:24.817Z,9.13
2024-03-16T05:09:05.837Z,9.12
2024-03-16T05:13:43.800Z,8.97
2024-03-16T05:18:22.819Z,8.94
2024-03-16T05:23:00.857Z,8.86
2024-03-16T05:27:42.834Z,8.81
2024-03-16T05:32:21.834Z,8.79
2024-03-16T05:36:59.829Z,8.78
2024-03-16T05:41:37.896Z,8.79
2024-03-16T05:46:18.853Z,8.74
2024-03-16T05:50:56.829Z,8.73
2024-03-16T05:55:34.844Z,8.74
2024-03-16T06:00:20.894Z,8.80
2024-03-16T06:05:02.830Z,8.75
2024-03-16T06:09:40.852Z,8.71
2024-03-16T06:14:19.828Z,8.73
2024-03-16T06:18:57.904Z,8.73
2024-03-16T06:23:38.844Z,8.69
2024-03-16T06:28:16.903Z,8.68
2024-03-16T06:33:13.853Z,8.59
2024-03-16T06:37:51.810Z,8.48
2024-03-16T06:42:33.868Z,8.31
2024-03-16T06:47:11.820Z,8.17
2024-03-16T06:51:49.821Z,8.02
2024-03-16T06:56:27.811Z,8.00
2024-03-16T07:01:10.914Z,7.93
2024-03-16T07:05:48.833Z,7.98
2024-03-16T07:10:26.891Z,7.97
2024-03-16T07:15:04.808Z,8.08
2024-03-16T07:19:45.827Z,8.13
2024-03-16T07:24:23.808Z,8.23
2024-03-16T07:29:02.788Z,8.23
2024-03-16T07:33:42.817Z,8.26
2024-03-16T07:38:23.830Z,8.19
2024-03-16T07:43:01.847Z,8.13
2024-03-16T07:47:39.815Z,8.15
2024-03-16T07:52:19.866Z,8.24
2024-03-16T07:57:00.801Z,8.29
2024-03-16T08:01:38.865Z,8.16
2024-03-16T08:06:17.813Z,8.16
2024-03-16T08:10:55.837Z,8.24
2024-03-16T08:15:36.817Z,8.30
2024-03-16T08:20:17.811Z,8.26
2024-03-16T08:24:55.859Z,8.34
2024-03-16T08:29:34.813Z,8.45
2024-03-16T08:34:16.832Z,8.45
2024-03-16T08:38:54.805Z,8.32
2024-03-16T08:43:32.884Z,8.33
2024-03-16T08:48:10.848Z,8.27
2024-03-16T08:52:52.819Z,8.34
2024-03-16T08:57:30.970Z,8.41
2024-03-16T09:02:11.859Z,8.58
2024-03-16T09:06:49.839Z,8.85
2024-03-16T09:11:30.852Z,9.02
2024-03-16T09:16:08.856Z,9.01
2024-03-16T09:20:51.805Z,8.94
2024-03-16T09:25:30.804Z,9.04
2024-03-16T09:30:13.053Z,9.06
2024-03-16T09:34:50.814Z,9.08
2024-03-16T09:39:34.839Z,8.99
